Time;durP1;ratioP1;P1;durP2;ratioP2;P2;SDS_P1;SDS_P2;PMS_P1;PMS_P2;Temp;Humidity;BMP_temperature;BMP_pressure;BME280_temperature;BME280_humidity;BME280_pressure;Samples;Min_cycle;Max_cycle;Signal;HPM_P1;HPM_P2
2022/07/05 00:01:37;;;;;;;5.07;3.92;;;;;;;26.77;48.83;94785.28;4939373;29;20202;-83
2022/07/05 00:04:03;;;;;;;4.93;3.70;;;;;;;26.73;48.77;94782.34;4917859;29;20207;-85
2022/07/05 00:06:30;;;;;;;4.70;4.30;;;;;;;26.71;48.83;94784.38;4916329;29;20252;-80
2022/07/05 00:08:57;;;;;;;5.22;3.85;;;;;;;26.70;49.02;94776.75;4915583;29;20202;-86
2022/07/05 00:11:24;;;;;;;4.32;3.92;;;;;;;26.66;49.29;94784.31;4915586;29;20195;-86
2022/07/05 00:13:50;;;;;;;4.82;3.65;;;;;;;26.64;49.23;94780.31;4915540;29;20188;-83
2022/07/05 00:16:17;;;;;;;7.45;3.95;;;;;;;26.61;48.93;94771.09;4915945;29;20196;-84
2022/07/05 00:18:45;;;;;;;3.90;3.50;;;;;;;26.59;49.25;94772.34;4916053;29;20291;-86
2022/07/05 00:21:12;;;;;;;4.78;3.75;;;;;;;26.57;49.16;94774.44;4915746;29;20231;-85
2022/07/05 00:23:39;;;;;;;5.00;3.75;;;;;;;26.53;49.03;94768.84;4915754;29;20265;-84
2022/07/05 00:26:06;;;;;;;5.20;3.95;;;;;;;26.49;49.26;94779.00;4915032;29;20956;-83
2022/07/05 00:28:32;;;;;;;4.13;3.72;;;;;;;26.47;49.15;94780.28;4915585;29;20238;-85
2022/07/05 00:30:59;;;;;;;4.00;3.50;;;;;;;26.40;49.30;94772.53;4915440;29;20207;-84
2022/07/05 00:33:26;;;;;;;6.25;3.80;;;;;;;26.39;49.01;94768.31;4915634;29;20210;-84
2022/07/05 00:35:54;;;;;;;3.97;3.40;;;;;;;26.37;48.98;94772.97;4915455;29;20677;-85
2022/07/05 00:38:21;;;;;;;8.10;4.55;;;;;;;26.36;49.25;94767.97;4915149;29;20290;-84
2022/07/05 00:40:47;;;;;;;5.35;3.40;;;;;;;26.34;49.06;94772.66;4914937;29;20200;-85
2022/07/05 00:43:14;;;;;;;4.10;3.70;;;;;;;26.30;49.28;94769.72;4915659;29;20196;-83
2022/07/05 00:45:41;;;;;;;4.15;3.75;;;;;;;26.21;49.30;94758.81;4915361;29;20200;-85
2022/07/05 00:48:08;;;;;;;3.70;3.35;;;;;;;26.23;49.14;94761.97;4915347;29;20195;-85
2022/07/05 00:50:35;;;;;;;4.40;3.78;;;;;;;26.20;49.34;94757.19;4915258;29;20265;-79
2022/07/05 00:53:03;;;;;;;4.55;3.45;;;;;;;26.15;49.41;94749.22;4914725;29;20576;-85
2022/07/05 00:55:30;;;;;;;3.80;3.50;;;;;;;26.19;49.31;94762.69;4915061;29;20278;-85
2022/07/05 00:57:57;;;;;;;3.55;3.25;;;;;;;26.17;49.26;94762.13;4914851;29;20219;-81
2022/07/05 01:00:24;;;;;;;6.40;3.67;;;;;;;26.15;49.20;94767.59;4915319;29;20191;-84
2022/07/05 01:02:50;;;;;;;4.30;3.20;;;;;;;26.12;49.27;94767.25;4916104;29;20187;-82
2022/07/05 01:05:17;;;;;;;3.92;3.58;;;;;;;26.10;49.43;94772.72;4916540;29;20688;-78
2022/07/05 01:07:44;;;;;;;4.10;3.67;;;;;;;26.08;49.46;94772.19;4914658;29;20196;-84
2022/07/05 01:10:12;;;;;;;8.07;4.03;;;;;;;26.06;49.67;94771.59;4915161;29;20255;-84
2022/07/05 01:12:40;;;;;;;3.50;3.30;;;;;;;26.01;49.60;94772.31;4915262;29;20231;-84
2022/07/05 01:15:08;;;;;;;4.82;3.67;;;;;;;25.99;49.75;94773.56;4915052;29;20222;-84
2022/07/05 01:17:36;;;;;;;4.25;3.53;;;;;;;25.97;49.84;94776.41;4914401;29;20231;-81
2022/07/05 01:20:06;;;;;;;6.00;3.55;;;;;;;25.94;50.01;94776.06;4914795;29;20719;-84
2022/07/05 01:22:52;;;;;;;4.68;4.20;;;;;;;25.92;50.34;94775.53;4914868;29;20195;-84
2022/07/05 01:25:20;;;;;;;3.90;3.40;;;;;;;25.91;50.00;94785.22;4914551;29;20278;-84
2022/07/05 01:27:49;;;;;;;6.90;3.97;;;;;;;25.90;50.02;94786.22;4914403;29;20231;-85
2022/07/05 01:30:16;;;;;;;5.05;3.50;;;;;;;25.84;50.20;94781.13;4914452;29;20230;-84
2022/07/05 01:32:44;;;;;;;4.20;3.85;;;;;;;25.85;50.39;94786.13;4914938;29;20191;-83
2022/07/05 01:35:12;;;;;;;4.38;3.63;;;;;;;25.77;50.16;94778.59;4915618;29;20196;-85
2022/07/05 01:37:41;;;;;;;7.20;3.63;;;;;;;25.81;50.18;94789.44;4915753;29;20219;-83
2022/07/05 01:40:08;;;;;;;6.43;3.90;;;;;;;25.80;50.23;94782.59;4914815;29;20823;-83
2022/07/05 01:42:35;;;;;;;3.67;3.38;;;;;;;25.78;50.34;94780.22;4914933;29;20184;-84
2022/07/05 01:45:02;;;;;;;4.00;3.65;;;;;;;25.76;50.26;94779.59;4915157;29;20191;-84
2022/07/05 01:47:29;;;;;;;4.35;3.70;;;;;;;25.74;50.39;94776.44;4915085;29;20623;-86
2022/07/05 01:49:59;;;;;;;4.40;3.58;;;;;;;25.73;50.64;94769.56;4914880;29;20552;-83
2022/07/05 01:52:26;;;;;;;8.93;3.88;;;;;;;25.66;50.36;94768.91;4915573;29;20196;-83
2022/07/05 01:54:54;;;;;;;5.00;3.70;;;;;;;25.67;50.71;94771.31;4915439;29;20207;-84
2022/07/05 01:57:21;;;;;;;4.05;3.65;;;;;;;25.69;50.72;94773.69;4915215;29;20677;-80
2022/07/05 01:59:48;;;;;;;5.55;3.40;;;;;;;25.66;50.77;94768.91;4914222;29;20528;-86
2022/07/05 02:02:16;;;;;;;4.35;3.95;;;;;;;25.63;50.83;94766.75;4913911;29;20188;-85
2022/07/05 02:04:42;;;;;;;8.98;3.65;;;;;;;25.56;50.69;94756.41;4914653;29;20196;-85
2022/07/05 02:07:09;;;;;;;3.83;3.40;;;;;;;25.59;50.78;94763.00;4914740;29;20557;-83
2022/07/05 02:09:36;;;;;;;4.25;3.50;;;;;;;25.58;50.94;94771.88;4914658;29;20672;-85
2022/07/05 02:12:06;;;;;;;3.88;3.58;;;;;;;25.56;51.17;94761.66;4917787;29;20204;-85
2022/07/05 02:14:33;;;;;;;8.18;4.00;;;;;;;25.52;51.12;94765.75;4917166;29;20203;-85
2022/07/05 02:17:05;;;;;;;3.90;3.58;;;;;;;25.51;51.42;94774.59;4922059;29;20199;-83
2022/07/05 02:19:39;;;;;;;5.80;3.90;;;;;;;25.45;51.60;94780.78;4927266;29;20184;-85
2022/07/05 02:22:06;;;;;;;4.35;4.03;;;;;;;25.42;51.50;94774.16;4930820;29;20686;-85
2022/07/05 02:24:33;;;;;;;4.40;3.95;;;;;;;25.38;51.80;94778.25;4917740;29;20607;-85
2022/07/05 02:27:00;;;;;;;3.90;3.60;;;;;;;25.40;51.91;94781.47;4917546;29;20195;-84
2022/07/05 02:29:28;;;;;;;3.97;3.47;;;;;;;25.38;51.97;94782.69;4917524;29;20274;-85
2022/07/05 02:31:55;;;;;;;4.53;4.10;;;;;;;25.38;52.11;94790.56;4917602;29;20481;-83
2022/07/05 02:34:21;;;;;;;4.32;3.92;;;;;;;25.36;52.22;94793.41;4917616;29;20640;-83
2022/07/05 02:36:48;;;;;;;5.28;4.22;;;;;;;25.29;52.11;94779.63;4916899;29;20580;-79
2022/07/05 02:39:15;;;;;;;4.85;4.20;;;;;;;25.33;52.28;94796.47;4917445;29;20239;-84
2022/07/05 02:41:42;;;;;;;7.53;3.97;;;;;;;25.31;52.37;94795.91;4916975;29;20204;-81
2022/07/05 02:44:08;;;;;;;4.80;4.40;;;;;;;25.27;52.45;94794.78;4918090;29;20180;-84
2022/07/05 02:46:37;;;;;;;5.07;3.92;;;;;;;25.23;52.68;94785.78;4918679;29;20199;-84
2022/07/05 02:49:03;;;;;;;4.18;3.78;;;;;;;25.27;52.77;94800.00;4918393;29;20196;-84
2022/07/05 02:51:31;;;;;;;8.80;3.95;;;;;;;25.25;52.52;94791.56;4919034;29;20199;-86
2022/07/05 02:53:57;;;;;;;6.28;4.10;;;;;;;25.25;52.75;94799.41;4917956;29;20219;-82
2022/07/05 02:56:24;;;;;;;6.05;3.80;;;;;;;25.24;52.68;94800.44;4916566;29;20207;-79
2022/07/05 02:58:51;;;;;;;5.47;4.10;;;;;;;25.24;52.59;94803.84;4917561;29;20703;-85
2022/07/05 03:01:18;;;;;;;4.35;3.53;;;;;;;25.22;52.56;94795.44;4917115;29;20581;-85
2022/07/05 03:03:46;;;;;;;4.53;4.13;;;;;;;25.23;52.22;94809.34;4917077;29;20687;-85
2022/07/05 03:06:12;;;;;;;6.43;3.97;;;;;;;25.20;52.44;94799.31;4917027;29;20201;-84
2022/07/05 03:08:41;;;;;;;4.40;3.95;;;;;;;25.22;52.55;94797.28;4917039;29;20191;-84
2022/07/05 03:11:08;;;;;;;4.03;3.63;;;;;;;25.19;52.64;94801.13;4917703;29;20708;-84
2022/07/05 03:13:35;;;;;;;7.07;3.90;;;;;;;25.22;52.29;94802.50;4916837;29;20188;-83
2022/07/05 03:16:02;;;;;;;4.50;4.10;;;;;;;25.21;52.50;94801.69;4917532;29;20191;-85
2022/07/05 03:18:29;;;;;;;4.07;3.72;;;;;;;25.22;52.33;94802.50;4916292;29;20258;-85
2022/07/05 03:20:57;;;;;;;4.65;4.18;;;;;;;25.20;52.48;94797.47;4916707;29;20714;-85
2022/07/05 03:23:23;;;;;;;4.20;3.90;;;;;;;25.21;52.37;94796.44;4916843;29;20184;-85
2022/07/05 03:25:50;;;;;;;6.55;4.20;;;;;;;25.16;52.54;94791.09;4916997;29;20698;-84
2022/07/05 03:28:17;;;;;;;5.32;3.97;;;;;;;25.27;52.53;94802.63;4916515;29;20231;-85
2022/07/05 03:30:44;;;;;;;5.70;3.95;;;;;;;25.27;52.39;94792.16;4916667;29;20196;-84
2022/07/05 03:33:11;;;;;;;4.07;3.67;;;;;;;25.28;52.37;94797.16;4916858;29;20203;-84
2022/07/05 03:35:38;;;;;;;8.70;3.78;;;;;;;25.32;52.31;94805.34;4916885;29;20203;-79
2022/07/05 03:38:06;;;;;;;5.50;3.92;;;;;;;25.34;52.50;94795.44;4915427;29;20596;-79
2022/07/05 03:40:33;;;;;;;10.63;4.90;;;;;;;25.36;52.50;94792.59;4915619;29;20196;-78
2022/07/05 03:43:00;;;;;;;9.23;4.13;;;;;;;25.36;52.50;94790.00;4915668;29;20196;-79
2022/07/05 03:45:26;;;;;;;5.05;3.83;;;;;;;25.41;52.52;94779.63;4916462;29;20188;-79
2022/07/05 03:47:53;;;;;;;4.45;4.05;;;;;;;25.43;52.71;94790.66;4916454;29;20207;-82
2022/07/05 03:50:20;;;;;;;5.03;4.50;;;;;;;25.44;52.42;94798.31;4917052;29;20674;-85
2022/07/05 03:52:47;;;;;;;9.20;4.78;;;;;;;25.43;52.69;94785.41;4917439;29;20203;-84
2022/07/05 03:55:15;;;;;;;6.00;4.30;;;;;;;25.46;52.63;94783.16;4917692;29;20188;-85
2022/07/05 03:57:42;;;;;;;7.97;4.55;;;;;;;25.49;52.85;94793.19;4916908;29;20219;-84
2022/07/05 04:00:10;;;;;;;4.68;4.20;;;;;;;25.51;52.84;94788.50;4916566;29;20191;-80
2022/07/05 04:02:37;;;;;;;7.60;4.57;;;;;;;25.56;52.65;94798.31;4916429;29;20210;-86
2022/07/05 04:05:04;;;;;;;4.63;3.90;;;;;;;25.56;52.55;94787.00;4915904;29;20211;-86
2022/07/05 04:07:31;;;;;;;5.43;3.83;;;;;;;25.60;52.39;94794.19;4916554;29;20550;-85
2022/07/05 04:09:58;;;;;;;6.93;4.75;;;;;;;25.64;52.14;94795.31;4916016;29;20207;-85
2022/07/05 04:12:26;;;;;;;5.53;4.43;;;;;;;25.65;51.76;94789.09;4916135;29;20627;-85
2022/07/05 04:14:53;;;;;;;9.60;3.95;;;;;;;25.70;51.70;94783.16;4915312;29;20191;-84
2022/07/05 04:17:19;;;;;;;4.68;4.28;;;;;;;25.77;51.76;94797.72;4916477;29;20672;-84
2022/07/05 04:19:46;;;;;;;6.00;4.00;;;;;;;25.80;51.65;94787.84;4915745;29;20227;-83
2022/07/05 04:22:13;;;;;;;6.00;4.40;;;;;;;25.83;51.45;94795.25;4915520;29;20200;-87
2022/07/05 04:27:20;;;;;;;8.20;3.88;;;;;;;25.83;51.17;94769.03;4915146;29;20322;-84
2022/07/05 04:29:48;;;;;;;8.45;3.72;;;;;;;26.01;50.82;94792.47;4915655;29;20207;-85
2022/07/05 04:32:15;;;;;;;5.53;4.38;;;;;;;26.01;50.60;94784.63;4916015;29;20192;-85
2022/07/05 04:34:42;;;;;;;7.00;4.03;;;;;;;26.06;50.10;94787.34;4916123;29;20688;-86
2022/07/05 04:37:09;;;;;;;5.00;3.95;;;;;;;26.09;49.37;94789.50;4916029;29;20195;-86
2022/07/05 04:39:35;;;;;;;4.85;3.55;;;;;;;26.12;48.90;94790.84;4916669;29;20227;-85
2022/07/05 04:42:02;;;;;;;8.27;3.85;;;;;;;26.10;48.65;94792.91;4915346;29;20248;-85
2022/07/05 04:44:29;;;;;;;6.43;4.10;;;;;;;26.14;48.01;94794.03;4915536;29;20195;-86
2022/07/05 04:46:57;;;;;;;11.57;3.85;;;;;;;26.06;47.62;94776.06;4915975;29;20192;-86
2022/07/05 04:49:24;;;;;;;5.60;3.25;;;;;;;26.02;47.51;94765.22;4916052;29;20196;-86
2022/07/05 04:51:51;;;;;;;8.90;3.40;;;;;;;26.16;47.70;94790.16;4915362;29;20202;-83
2022/07/05 04:54:19;;;;;;;7.82;3.20;;;;;;;26.05;47.43;94777.09;4914946;29;20200;-86
2022/07/05 04:56:45;;;;;;;7.10;3.50;;;;;;;26.21;47.25;94798.13;4914845;29;20760;-81
2022/07/05 04:59:12;;;;;;;4.68;4.25;;;;;;;26.22;47.69;94804.97;4914838;29;20216;-84
2022/07/05 05:01:39;;;;;;;5.00;3.40;;;;;;;26.27;47.38;94794.56;4915340;29;20207;-85
2022/07/05 05:04:07;;;;;;;5.93;3.50;;;;;;;26.31;47.42;94796.72;4915327;29;20192;-86
2022/07/05 05:06:34;;;;;;;4.38;3.38;;;;;;;26.37;47.17;94793.16;4915188;29;20196;-86
2022/07/05 05:09:01;;;;;;;3.78;3.47;;;;;;;26.45;47.10;94803.31;4914651;29;20194;-84
2022/07/05 05:11:28;;;;;;;4.35;3.55;;;;;;;26.51;47.04;94808.44;4915369;29;20203;-85
2022/07/05 05:13:54;;;;;;;5.30;3.47;;;;;;;26.60;47.58;94798.38;4914897;29;20199;-86
2022/07/05 05:16:21;;;;;;;3.80;3.50;;;;;;;26.85;48.56;94808.50;4915445;29;20188;-86
2022/07/05 05:18:48;;;;;;;4.47;3.80;;;;;;;27.16;49.64;94806.41;4914923;29;20278;-82
2022/07/05 05:21:16;;;;;;;6.18;3.72;;;;;;;27.62;49.20;94807.91;4920389;29;20203;-83
2022/07/05 05:23:43;;;;;;;4.60;2.90;;;;;;;28.12;48.81;94806.25;4914550;29;20596;-83
2022/07/05 05:26:10;;;;;;;8.07;3.63;;;;;;;28.61;47.88;94803.66;4914446;29;20680;-85
2022/07/05 05:28:37;;;;;;;5.43;3.17;;;;;;;29.28;47.25;94808.53;4914529;29;20349;-76
2022/07/05 05:31:04;;;;;;;3.70;3.40;;;;;;;29.91;45.63;94804.22;4915213;29;20200;-77
2022/07/05 05:33:30;;;;;;;3.42;3.10;;;;;;;30.53;44.13;94813.22;4914755;29;20199;-77
2022/07/05 05:35:58;;;;;;;5.18;3.08;;;;;;;31.19;42.99;94810.72;4914095;29;20648;-76
2022/07/05 05:38:26;;;;;;;6.57;2.63;;;;;;;31.85;41.40;94807.25;4914053;29;20231;-76
2022/07/05 05:40:53;;;;;;;3.38;3.08;;;;;;;32.48;40.37;94806.81;4914534;29;20204;-84
2022/07/05 05:43:20;;;;;;;3.40;2.67;;;;;;;33.12;39.11;94808.56;4914399;29;20203;-85
2022/07/05 05:45:46;;;;;;;7.38;3.22;;;;;;;33.74;38.24;94808.84;4916698;29;20195;-85
2022/07/05 05:48:13;;;;;;;4.68;3.08;;;;;;;34.34;37.39;94811.16;4918243;29;20204;-87
2022/07/05 05:50:40;;;;;;;9.10;3.03;;;;;;;34.91;36.40;94802.16;4918183;29;20206;-85
2022/07/05 05:53:07;;;;;;;3.45;2.95;;;;;;;35.43;35.38;94808.28;4918539;29;20187;-85
2022/07/05 05:55:36;;;;;;;3.10;2.90;;;;;;;35.94;34.35;94810.06;4918289;29;20214;-86
2022/07/05 05:58:13;;;;;;;9.45;3.08;;;;;;;36.34;33.80;94799.75;4918402;29;20680;-86
2022/07/05 06:00:40;;;;;;;4.20;3.17;;;;;;;36.86;32.96;94820.78;4918863;29;20659;-86
2022/07/05 06:03:07;;;;;;;4.32;3.08;;;;;;;37.30;32.50;94821.94;4918748;29;20198;-85
2022/07/05 06:05:33;;;;;;;6.43;2.92;;;;;;;37.70;31.82;94824.72;4920795;29;20203;-80
2022/07/05 06:08:01;;;;;;;3.60;2.97;;;;;;;38.11;31.35;94821.81;4919416;29;20196;-86
2022/07/05 06:10:29;;;;;;;4.28;2.88;;;;;;;38.47;30.83;94815.47;4918222;29;20200;-86
2022/07/05 06:13:00;;;;;;;4.38;2.72;;;;;;;38.83;30.02;94820.63;4917792;29;20200;-83
2022/07/05 06:15:27;;;;;;;5.88;2.90;;;;;;;39.07;29.57;94818.25;4917071;29;20549;-86
2022/07/05 06:17:54;;;;;;;6.57;3.00;;;;;;;39.42;29.67;94817.44;4917582;29;20204;-84
2022/07/05 06:20:24;;;;;;;5.03;3.50;;;;;;;39.74;28.88;94830.34;4917198;29;20314;-85
2022/07/05 06:22:52;;;;;;;4.90;2.55;;;;;;;40.02;29.10;94835.28;4917187;29;20191;-85
2022/07/05 06:25:19;;;;;;;4.47;3.13;;;;;;;40.17;28.45;94817.91;4917502;29;20184;-84
2022/07/05 06:27:47;;;;;;;4.40;2.70;;;;;;;40.50;28.21;94834.13;4916993;29;20244;-82
2022/07/05 06:30:17;;;;;;;3.00;2.80;;;;;;;40.72;28.06;94839.25;4917286;29;20204;-85
2022/07/05 06:32:44;;;;;;;4.57;3.13;;;;;;;40.95;27.68;94836.25;4919893;29;20191;-88
2022/07/05 06:35:12;;;;;;;7.32;3.30;;;;;;;41.14;26.98;94839.25;4917574;29;20198;-86
2022/07/05 06:37:43;;;;;;;4.53;3.13;;;;;;;41.30;27.29;94832.19;4916999;29;20214;-84
2022/07/05 06:40:12;;;;;;;6.65;3.03;;;;;;;41.40;27.23;94825.63;4917206;29;20227;-86
2022/07/05 06:42:39;;;;;;;3.30;2.70;;;;;;;41.60;26.69;94832.09;4916821;29;20930;-86
2022/07/05 06:45:07;;;;;;;5.68;3.00;;;;;;;41.77;26.78;94834.59;4916731;29;20204;-85
2022/07/05 06:47:36;;;;;;;3.53;3.22;;;;;;;41.94;26.79;94827.47;4916952;29;20188;-86
2022/07/05 06:50:03;;;;;;;9.70;3.20;;;;;;;42.09;26.44;94830.28;4916841;29;20617;-87
2022/07/05 06:52:31;;;;;;;4.05;3.70;;;;;;;42.18;26.31;94811.34;4916861;29;20191;-86
2022/07/05 06:54:58;;;;;;;4.05;2.92;;;;;;;42.38;25.93;94823.16;4917259;29;20191;-84
2022/07/05 06:57:25;;;;;;;3.88;3.00;;;;;;;42.54;25.63;94818.66;4917258;29;20199;-87
2022/07/05 06:59:52;;;;;;;5.50;2.70;;;;;;;42.69;25.78;94822.56;4916932;29;20227;-87
2022/07/05 07:02:19;;;;;;;5.45;2.85;;;;;;;42.85;25.91;94806.50;4917189;29;20277;-88
2022/07/05 07:04:48;;;;;;;5.82;2.53;;;;;;;42.89;25.43;94785.09;4918440;29;20199;-83
2022/07/05 07:10:00;;;;;;;3.38;2.80;;;;;;;43.23;25.43;94798.00;4917665;29;20203;-87
2022/07/05 07:12:27;;;;;;;3.83;2.97;;;;;;;43.41;25.12;94820.03;4903205;29;20195;-87
2022/07/05 07:14:54;;;;;;;3.03;2.63;;;;;;;43.51;25.00;94814.16;4917342;29;20187;-86
2022/07/05 07:17:21;;;;;;;4.20;2.90;;;;;;;43.64;24.95;94812.16;4917421;29;20195;-87
2022/07/05 07:19:49;;;;;;;6.78;3.35;;;;;;;43.75;24.99;94815.94;4917505;29;20223;-87
2022/07/05 07:22:16;;;;;;;5.72;3.20;;;;;;;43.81;24.53;94822.63;4917014;29;20191;-86
2022/07/05 07:24:43;;;;;;;7.82;3.00;;;;;;;43.88;24.48;94832.84;4918130;29;20608;-88
2022/07/05 07:27:09;;;;;;;4.57;3.08;;;;;;;43.90;24.24;94825.19;4916813;29;20206;-83
2022/07/05 07:29:38;;;;;;;6.07;3.20;;;;;;;43.91;24.68;94815.94;4916821;29;20192;-84
2022/07/05 07:32:07;;;;;;;4.72;3.17;;;;;;;43.95;24.68;94813.34;4916488;29;20195;-87
2022/07/05 07:34:34;;;;;;;3.42;3.13;;;;;;;44.10;24.60;94826.06;4916542;29;20290;-86
2022/07/05 07:37:02;;;;;;;3.17;2.88;;;;;;;44.14;24.42;94823.44;4917203;29;20211;-83
2022/07/05 07:39:31;;;;;;;2.90;2.70;;;;;;;44.16;23.99;94815.78;4917124;29;20230;-82
2022/07/05 07:41:58;;;;;;;3.38;3.00;;;;;;;44.21;24.20;94812.81;4916363;29;20235;-88
2022/07/05 07:44:25;;;;;;;4.63;3.42;;;;;;;44.14;23.97;94801.88;4918285;29;20199;-81
2022/07/05 07:46:52;;;;;;;3.05;2.70;;;;;;;44.22;24.32;94814.41;4916292;29;20203;-86
2022/07/05 07:49:19;;;;;;;2.70;2.50;;;;;;;44.25;24.34;94819.09;4916284;29;20199;-86
2022/07/05 07:51:46;;;;;;;4.72;2.67;;;;;;;44.25;23.78;94816.41;4917162;29;20195;-87
2022/07/05 07:54:14;;;;;;;5.47;3.25;;;;;;;44.24;23.97;94814.84;4919377;29;20199;-83
2022/07/05 07:56:41;;;;;;;3.30;2.80;;;;;;;44.23;24.32;94819.44;4918131;29;20199;-86
2022/07/05 07:59:08;;;;;;;4.05;3.42;;;;;;;44.20;24.66;94814.72;4916489;29;20215;-86
2022/07/05 08:01:35;;;;;;;4.03;2.63;;;;;;;44.18;24.46;94808.13;4917006;29;20198;-85
2022/07/05 08:04:02;;;;;;;4.68;3.17;;;;;;;44.10;24.42;94806.41;4917412;29;20195;-86
2022/07/05 08:06:29;;;;;;;4.70;3.40;;;;;;;44.10;24.22;94811.78;4916673;29;20206;-83
2022/07/05 08:08:56;;;;;;;4.53;3.33;;;;;;;43.93;23.99;94794.84;4918081;29;20571;-87
2022/07/05 08:11:25;;;;;;;4.15;3.08;;;;;;;43.97;24.13;94809.19;4919136;29;20245;-82
2022/07/05 08:13:51;;;;;;;3.75;3.33;;;;;;;43.91;24.31;94812.47;4919569;29;20202;-84
2022/07/05 08:16:18;;;;;;;3.50;3.20;;;;;;;43.87;24.67;94808.91;4919432;29;20196;-86
2022/07/05 08:21:34;;;;;;;5.07;3.00;;;;;;;43.66;24.67;94804.53;4917894;29;20209;-87
2022/07/05 08:24:03;;;;;;;3.45;3.15;;;;;;;43.58;24.58;94808.19;4918872;29;20278;-83
2022/07/05 08:26:32;;;;;;;3.10;2.80;;;;;;;43.33;24.78;94775.94;4918139;29;20203;-88
2022/07/05 08:28:59;;;;;;;4.93;3.53;;;;;;;43.43;25.12;94798.13;4919447;29;20231;-86
2022/07/05 08:31:27;;;;;;;4.93;3.15;;;;;;;43.11;24.63;94773.03;4918881;29;20255;-83
2022/07/05 08:33:54;;;;;;;4.78;3.25;;;;;;;43.21;25.14;94800.25;4918454;29;20785;-82
2022/07/05 08:36:21;;;;;;;6.85;3.30;;;;;;;43.13;24.91;94801.16;4918229;29;20191;-86
2022/07/05 08:38:47;;;;;;;3.88;3.47;;;;;;;42.97;25.03;94790.34;4920039;29;20194;-84
2022/07/05 08:41:19;;;;;;;3.50;3.25;;;;;;;42.87;25.21;94793.50;4920356;29;20223;-86
2022/07/05 08:43:49;;;;;;;4.03;3.25;;;;;;;42.73;25.01;94782.31;4924733;29;20191;-87
2022/07/05 08:46:17;;;;;;;3.53;3.22;;;;;;;42.66;25.37;94790.97;4919547;29;20195;-85
2022/07/05 08:48:47;;;;;;;3.72;3.20;;;;;;;42.47;25.56;94772.72;4916740;29;20196;-82
2022/07/05 08:51:17;;;;;;;5.03;3.40;;;;;;;42.46;25.47;94783.81;4916758;29;20188;-86
2022/07/05 08:53:44;;;;;;;3.83;3.45;;;;;;;42.37;25.95;94785.84;4917701;29;20287;-87
2022/07/05 08:56:13;;;;;;;4.85;2.92;;;;;;;42.25;25.84;94783.94;4915993;29;20203;-87
2022/07/05 08:58:40;;;;;;;4.38;2.88;;;;;;;42.10;25.72;94778.09;4916404;29;20199;-82
2022/07/05 09:01:10;;;;;;;4.40;3.50;;;;;;;42.01;25.87;94776.63;4916377;29;20216;-87
2022/07/05 09:03:40;;;;;;;3.97;2.78;;;;;;;41.88;26.15;94778.53;4915754;29;20227;-85
2022/07/05 09:06:10;;;;;;;10.48;3.85;;;;;;;41.74;26.24;94764.63;4915601;29;20216;-80
2022/07/05 09:08:39;;;;;;;3.78;3.42;;;;;;;41.59;26.42;94772.22;4916511;29;20266;-84
2022/07/05 09:11:08;;;;;;;3.63;3.33;;;;;;;41.51;26.38;94769.63;4922061;29;20684;-86
2022/07/05 09:13:36;;;;;;;6.53;3.72;;;;;;;41.38;26.34;94766.13;4915704;29;20282;-83
2022/07/05 09:16:04;;;;;;;3.83;3.20;;;;;;;41.23;26.83;94754.06;4916062;29;20195;-86
2022/07/05 09:18:51;;;;;;;3.80;3.50;;;;;;;41.11;26.37;94751.38;4915928;29;20206;-87
2022/07/05 09:21:20;;;;;;;4.00;3.60;;;;;;;40.98;27.02;94753.22;4914030;29;20250;-87
2022/07/05 09:23:56;;;;;;;6.00;4.03;;;;;;;40.85;27.02;94747.00;4916578;29;20198;-87
2022/07/05 09:26:35;;;;;;;4.95;3.47;;;;;;;40.70;26.93;94741.44;4897905;29;20203;-87
2022/07/05 09:29:03;;;;;;;4.72;3.42;;;;;;;40.59;27.35;94739.16;4914851;29;20242;-85
2022/07/05 09:31:33;;;;;;;3.70;3.40;;;;;;;40.44;27.31;94734.34;4915847;29;20658;-86
2022/07/05 09:34:11;;;;;;;6.22;3.65;;;;;;;39.88;27.62;94672.09;4915545;29;20192;-88
2022/07/05 09:36:49;;;;;;;3.63;3.33;;;;;;;40.15;27.86;94737.81;4916642;29;20196;-81
2022/07/05 09:39:16;;;;;;;4.28;3.80;;;;;;;40.01;27.59;94730.00;4916325;29;20198;-84
2022/07/05 09:41:43;;;;;;;3.65;3.30;;;;;;;39.86;27.70;94725.22;4913924;29;20195;-79
2022/07/05 09:44:09;;;;;;;4.18;3.38;;;;;;;39.72;27.93;94719.28;4914357;29;20200;-86
2022/07/05 09:46:36;;;;;;;4.10;3.70;;;;;;;39.59;27.82;94723.69;4914079;29;20652;-81
2022/07/05 09:49:03;;;;;;;5.72;4.20;;;;;;;39.46;28.06;94727.38;4897962;29;20214;-82
2022/07/05 09:51:48;;;;;;;5.10;3.38;;;;;;;39.28;28.47;94716.72;4914132;29;20204;-86
2022/07/05 09:54:15;;;;;;;4.35;3.40;;;;;;;39.16;28.57;94711.22;4915008;29;20235;-82
2022/07/05 09:56:46;;;;;;;5.65;3.85;;;;;;;39.04;28.62;94713.78;4915581;29;20195;-86
2022/07/05 09:59:18;;;;;;;5.68;3.55;;;;;;;38.88;28.66;94711.59;4916009;29;20211;-87
2022/07/05 10:01:45;;;;;;;4.93;3.47;;;;;;;38.68;29.10;94700.72;4915848;29;20227;-84
2022/07/05 10:04:12;;;;;;;4.80;3.30;;;;;;;38.59;29.22;94698.81;4914790;29;20228;-84
2022/07/05 10:06:42;;;;;;;3.60;3.30;;;;;;;38.43;29.35;94697.75;4914473;29;20267;-79
2022/07/05 10:09:10;;;;;;;4.07;3.33;;;;;;;38.22;29.52;94683.41;4914224;29;20255;-81
2022/07/05 10:11:40;;;;;;;9.95;3.97;;;;;;;38.19;29.63;94700.03;4913999;29;20203;-82
2022/07/05 10:14:12;;;;;;;7.03;4.38;;;;;;;38.08;29.70;94702.22;4914462;29;20222;-85
2022/07/05 10:16:42;;;;;;;4.07;3.78;;;;;;;37.87;30.04;94683.34;4916648;29;20681;-85
2022/07/05 10:19:16;;;;;;;3.95;3.53;;;;;;;37.81;30.26;94687.19;4916790;29;20740;-82
2022/07/05 10:21:45;;;;;;;5.40;4.20;;;;;;;37.64;30.34;94678.03;4914523;29;20638;-86
2022/07/05 10:24:12;;;;;;;5.50;4.00;;;;;;;37.55;30.36;94681.78;4914398;29;20199;-80
2022/07/05 10:26:41;;;;;;;6.50;3.53;;;;;;;37.45;30.55;94682.84;4916885;29;20210;-85
2022/07/05 10:29:10;;;;;;;3.80;3.47;;;;;;;37.31;30.86;94668.81;4915510;29;20239;-86
2022/07/05 10:31:37;;;;;;;8.30;4.60;;;;;;;37.16;30.85;94668.09;4917612;29;20192;-87
2022/07/05 10:34:08;;;;;;;5.20;4.00;;;;;;;37.10;31.03;94668.53;4919201;29;20192;-79
2022/07/05 10:36:37;;;;;;;6.90;4.60;;;;;;;37.01;31.02;94665.03;4918824;29;20632;-85
2022/07/05 10:39:06;;;;;;;4.45;4.05;;;;;;;36.89;31.42;94671.66;4917555;29;20668;-86
2022/07/05 10:41:34;;;;;;;5.32;4.70;;;;;;;36.75;31.47;94654.19;4917911;29;20215;-86
2022/07/05 10:44:01;;;;;;;5.78;4.50;;;;;;;36.71;31.35;94667.34;4918214;29;20561;-84
2022/07/05 10:46:35;;;;;;;4.47;4.03;;;;;;;36.63;31.73;94668.06;4917534;29;20596;-87
2022/07/05 10:49:21;;;;;;;5.70;4.30;;;;;;;36.56;31.57;94655.13;4917507;29;20199;-87
2022/07/05 10:51:49;;;;;;;7.10;3.88;;;;;;;36.50;32.01;94656.38;4917096;29;20196;-86
2022/07/05 10:54:17;;;;;;;4.78;4.35;;;;;;;36.44;31.89;94660.22;4917707;29;20206;-85
2022/07/05 10:57:23;;;;;;;7.35;4.50;;;;;;;36.37;32.02;94655.28;4917277;29;20191;-87
2022/07/05 11:00:09;;;;;;;5.05;4.38;;;;;;;36.31;31.91;94653.03;4917596;29;20203;-85
2022/07/05 11:02:37;;;;;;;6.45;4.05;;;;;;;36.23;32.23;94648.41;4918254;29;20240;-83
2022/07/05 11:05:05;;;;;;;4.88;4.30;;;;;;;36.07;32.32;94634.66;4917526;29;20199;-85
2022/07/05 11:07:58;;;;;;;6.38;4.15;;;;;;;36.04;32.35;94643.25;4918272;29;20291;-86
2022/07/05 11:10:27;;;;;;;7.47;4.68;;;;;;;36.04;32.35;94645.91;4917527;29;20195;-85
2022/07/05 11:12:53;;;;;;;7.57;4.68;;;;;;;35.96;32.54;94630.59;4918094;29;20571;-81
2022/07/05 11:15:20;;;;;;;4.30;3.90;;;;;;;35.86;32.75;94624.41;4918041;29;20218;-86
2022/07/05 11:17:47;;;;;;;4.18;3.83;;;;;;;35.87;32.85;94633.19;4918150;29;20263;-86
2022/07/05 11:20:19;;;;;;;8.15;4.47;;;;;;;35.77;32.82;94636.88;4918530;29;20243;-84
2022/07/05 11:23:05;;;;;;;6.35;4.40;;;;;;;35.71;33.01;94638.06;4917645;29;20283;-83
2022/07/05 11:25:36;;;;;;;6.22;4.10;;;;;;;35.63;33.06;94628.13;4916759;29;20199;-83
2022/07/05 11:28:23;;;;;;;6.60;3.97;;;;;;;35.60;33.32;94628.69;4917857;29;20238;-83
2022/07/05 11:30:59;;;;;;;9.70;4.53;;;;;;;35.48;33.25;94613.22;4918549;29;20232;-80
2022/07/05 11:33:31;;;;;;;5.60;4.57;;;;;;;35.53;33.16;94620.31;4926417;29;20195;-85
2022/07/05 11:35:58;;;;;;;8.13;4.43;;;;;;;35.41;33.59;94602.19;4927817;29;20192;-86
2022/07/05 11:38:25;;;;;;;5.53;4.38;;;;;;;35.47;33.33;94618.84;4920326;29;20714;-81
2022/07/05 11:40:54;;;;;;;6.55;4.20;;;;;;;35.42;33.45;94615.19;4924352;29;20231;-83
2022/07/05 11:43:28;;;;;;;7.50;4.32;;;;;;;35.38;33.51;94603.56;4921819;29;20199;-86
2022/07/05 11:45:59;;;;;;;5.63;4.38;;;;;;;35.38;33.42;94611.53;4917231;29;20728;-86
2022/07/05 11:48:28;;;;;;;5.90;4.80;;;;;;;35.36;33.37;94605.72;4916867;29;20664;-85